sensor_id;sensor_type;location;lat;lon;timestamp;pressure;altitude;pressure_sealevel;temperature;humidity
61436;BME280;47304;47.456;19.160;2023-04-28T00:00:30;100823.48;;;5.62;59.40
61436;BME280;47304;47.456;19.160;2023-04-28T00:02:57;100823.06;;;5.59;59.48
61436;BME280;47304;47.456;19.160;2023-04-28T00:05:24;100823.19;;;5.57;59.52
61436;BME280;47304;47.456;19.160;2023-04-28T00:07:50;100821.16;;;5.53;59.48
61436;BME280;47304;47.456;19.160;2023-04-28T00:10:17;100816.72;;;5.50;59.72
61436;BME280;47304;47.456;19.160;2023-04-28T00:12:43;100817.73;;;5.48;59.81
61436;BME280;47304;47.456;19.160;2023-04-28T00:15:10;100814.48;;;5.44;59.81
61436;BME280;47304;47.456;19.160;2023-04-28T00:17:36;100813.04;;;5.42;59.82
61436;BME280;47304;47.456;19.160;2023-04-28T00:20:04;100813.47;;;5.39;59.70
61436;BME280;47304;47.456;19.160;2023-04-28T00:22:30;100813.52;;;5.34;59.87
61436;BME280;47304;47.456;19.160;2023-04-28T00:24:57;100812.55;;;5.30;59.81
61436;BME280;47304;47.456;19.160;2023-04-28T00:27:23;100814.18;;;5.27;60.00
61436;BME280;47304;47.456;19.160;2023-04-28T00:29:50;100808.88;;;5.23;59.99
61436;BME280;47304;47.456;19.160;2023-04-28T00:32:16;100807.90;;;5.20;60.08
61436;BME280;47304;47.456;19.160;2023-04-28T00:34:43;100811.67;;;5.18;60.10
61436;BME280;47304;47.456;19.160;2023-04-28T00:37:09;100806.71;;;5.14;60.28
61436;BME280;47304;47.456;19.160;2023-04-28T00:39:36;100805.93;;;5.11;60.30
61436;BME280;47304;47.456;19.160;2023-04-28T00:42:02;100802.15;;;5.07;60.21
61436;BME280;47304;47.456;19.160;2023-04-28T00:44:29;100799.78;;;5.03;60.52
61436;BME280;47304;47.456;19.160;2023-04-28T00:46:57;100800.21;;;4.99;60.50
61436;BME280;47304;47.456;19.160;2023-04-28T00:49:24;100794.74;;;4.96;60.38
61436;BME280;47304;47.456;19.160;2023-04-28T00:51:51;100796.77;;;4.94;60.63
61436;BME280;47304;47.456;19.160;2023-04-28T00:54:18;100797.33;;;4.90;60.60
61436;BME280;47304;47.456;19.160;2023-04-28T00:56:45;100799.92;;;4.90;60.90
61436;BME280;47304;47.456;19.160;2023-04-28T00:59:12;100802.63;;;4.88;61.01
61436;BME280;47304;47.456;19.160;2023-04-28T01:01:38;100803.59;;;4.84;61.14
61436;BME280;47304;47.456;19.160;2023-04-28T01:04:05;100810.06;;;4.80;61.05
61436;BME280;47304;47.456;19.160;2023-04-28T01:06:33;100810.64;;;4.76;61.03
61436;BME280;47304;47.456;19.160;2023-04-28T01:08:59;100813.56;;;4.75;61.15
61436;BME280;47304;47.456;19.160;2023-04-28T01:11:26;100816.45;;;4.73;61.24
61436;BME280;47304;47.456;19.160;2023-04-28T01:13:52;100819.64;;;4.69;60.90
61436;BME280;47304;47.456;19.160;2023-04-28T01:16:19;100816.45;;;4.67;60.99
61436;BME280;47304;47.456;19.160;2023-04-28T01:18:46;100816.29;;;4.67;61.11
61436;BME280;47304;47.456;19.160;2023-04-28T01:21:13;100821.09;;;4.66;61.21
61436;BME280;47304;47.456;19.160;2023-04-28T01:23:39;100822.61;;;4.65;61.26
61436;BME280;47304;47.456;19.160;2023-04-28T01:26:06;100819.42;;;4.63;61.27
61436;BME280;47304;47.456;19.160;2023-04-28T01:28:32;100819.21;;;4.61;61.14
61436;BME280;47304;47.456;19.160;2023-04-28T01:30:59;100823.34;;;4.60;61.04
61436;BME280;47304;47.456;19.160;2023-04-28T01:33:25;100822.57;;;4.58;61.22
61436;BME280;47304;47.456;19.160;2023-04-28T01:35:56;100821.84;;;4.57;60.93
61436;BME280;47304;47.456;19.160;2023-04-28T01:38:23;100822.61;;;4.54;61.03
61436;BME280;47304;47.456;19.160;2023-04-28T01:40:49;100819.98;;;4.52;61.09
61436;BME280;47304;47.456;19.160;2023-04-28T01:43:16;100821.79;;;4.49;61.06
61436;BME280;47304;47.456;19.160;2023-04-28T01:45:43;100819.55;;;4.45;60.98
61436;BME280;47304;47.456;19.160;2023-04-28T01:48:09;100818.58;;;4.41;61.09
61436;BME280;47304;47.456;19.160;2023-04-28T01:50:36;100812.60;;;4.38;61.33
61436;BME280;47304;47.456;19.160;2023-04-28T01:53:02;100809.75;;;4.36;61.36
61436;BME280;47304;47.456;19.160;2023-04-28T01:55:29;100808.12;;;4.34;61.40
61436;BME280;47304;47.456;19.160;2023-04-28T01:57:55;100810.31;;;4.32;61.54
61436;BME280;47304;47.456;19.160;2023-04-28T02:00:23;100817.34;;;4.29;61.51
61436;BME280;47304;47.456;19.160;2023-04-28T02:02:49;100814.42;;;4.25;61.62
61436;BME280;47304;47.456;19.160;2023-04-28T02:05:16;100819.06;;;4.24;61.82
61436;BME280;47304;47.456;19.160;2023-04-28T02:07:42;100818.84;;;4.22;61.87
61436;BME280;47304;47.456;19.160;2023-04-28T02:10:09;100825.19;;;4.20;61.75
61436;BME280;47304;47.456;19.160;2023-04-28T02:12:35;100828.80;;;4.19;61.69
61436;BME280;47304;47.456;19.160;2023-04-28T02:15:02;100832.39;;;4.17;61.77
61436;BME280;47304;47.456;19.160;2023-04-28T02:17:29;100831.81;;;4.15;61.71
61436;BME280;47304;47.456;19.160;2023-04-28T02:19:56;100832.80;;;4.14;61.83
61436;BME280;47304;47.456;19.160;2023-04-28T02:22:23;100831.34;;;4.12;61.92
61436;BME280;47304;47.456;19.160;2023-04-28T02:24:49;100829.89;;;4.10;61.94
61436;BME280;47304;47.456;19.160;2023-04-28T02:27:16;100831.53;;;4.07;61.99
61436;BME280;47304;47.456;19.160;2023-04-28T02:29:43;100832.16;;;4.05;61.97
61436;BME280;47304;47.456;19.160;2023-04-28T02:32:10;100833.14;;;4.03;62.09
61436;BME280;47304;47.456;19.160;2023-04-28T02:34:36;100833.84;;;3.99;61.94
61436;BME280;47304;47.456;19.160;2023-04-28T02:37:03;100835.48;;;3.96;61.98
61436;BME280;47304;47.456;19.160;2023-04-28T02:39:29;100830.15;;;3.92;62.22
61436;BME280;47304;47.456;19.160;2023-04-28T02:41:55;100828.77;;;3.92;62.18
61436;BME280;47304;47.456;19.160;2023-04-28T02:44:22;100828.20;;;3.90;62.00
61436;BME280;47304;47.456;19.160;2023-04-28T02:46:49;100826.79;;;3.89;61.90
61436;BME280;47304;47.456;19.160;2023-04-28T02:49:15;100830.39;;;3.88;61.92
61436;BME280;47304;47.456;19.160;2023-04-28T02:51:42;100834.00;;;3.88;62.00
61436;BME280;47304;47.456;19.160;2023-04-28T02:54:08;100830.72;;;3.88;61.92
61436;BME280;47304;47.456;19.160;2023-04-28T02:56:35;100829.31;;;3.88;61.85
61436;BME280;47304;47.456;19.160;2023-04-28T02:59:01;100829.30;;;3.86;61.75
61436;BME280;47304;47.456;19.160;2023-04-28T03:01:28;100833.10;;;3.87;61.74
61436;BME280;47304;47.456;19.160;2023-04-28T03:03:54;100837.41;;;3.86;61.79
61436;BME280;47304;47.456;19.160;2023-04-28T03:06:21;100839.59;;;3.84;61.82
61436;BME280;47304;47.456;19.160;2023-04-28T03:08:48;100836.61;;;3.83;61.92
61436;BME280;47304;47.456;19.160;2023-04-28T03:11:14;100840.52;;;3.80;61.69
61436;BME280;47304;47.456;19.160;2023-04-28T03:13:41;100844.40;;;3.78;61.86
61436;BME280;47304;47.456;19.160;2023-04-28T03:16:08;100843.66;;;3.76;62.12
61436;BME280;47304;47.456;19.160;2023-04-28T03:18:34;100847.08;;;3.75;62.19
61436;BME280;47304;47.456;19.160;2023-04-28T03:21:01;100852.11;;;3.75;62.47
61436;BME280;47304;47.456;19.160;2023-04-28T03:23:27;100854.35;;;3.75;62.62
61436;BME280;47304;47.456;19.160;2023-04-28T03:25:54;100849.42;;;3.73;62.67
61436;BME280;47304;47.456;19.160;2023-04-28T03:28:20;100856.52;;;3.77;62.62
61436;BME280;47304;47.456;19.160;2023-04-28T03:30:47;100856.54;;;3.78;62.62
61436;BME280;47304;47.456;19.160;2023-04-28T03:33:13;100853.23;;;3.77;62.48
61436;BME280;47304;47.456;19.160;2023-04-28T03:35:39;100855.86;;;3.78;62.49
61436;BME280;47304;47.456;19.160;2023-04-28T03:38:06;100855.34;;;3.78;62.62
61436;BME280;47304;47.456;19.160;2023-04-28T03:40:32;100857.61;;;3.79;62.87
61436;BME280;47304;47.456;19.160;2023-04-28T03:42:59;100858.84;;;3.79;62.87
61436;BME280;47304;47.456;19.160;2023-04-28T03:45:28;100859.87;;;3.79;63.00
61436;BME280;47304;47.456;19.160;2023-04-28T03:47:55;100857.07;;;3.79;62.94
61436;BME280;47304;47.456;19.160;2023-04-28T03:50:21;100858.14;;;3.79;62.92
61436;BME280;47304;47.456;19.160;2023-04-28T03:52:51;100854.17;;;3.80;62.92
61436;BME280;47304;47.456;19.160;2023-04-28T03:55:18;100855.77;;;3.81;63.10
61436;BME280;47304;47.456;19.160;2023-04-28T03:57:44;100858.28;;;3.83;63.03
61436;BME280;47304;47.456;19.160;2023-04-28T04:00:12;100858.81;;;3.84;63.07
61436;BME280;47304;47.456;19.160;2023-04-28T04:02:39;100858.87;;;3.85;63.02
61436;BME280;47304;47.456;19.160;2023-04-28T04:05:06;100863.92;;;3.86;63.20
61436;BME280;47304;47.456;19.160;2023-04-28T04:07:33;100865.02;;;3.88;63.32
61436;BME280;47304;47.456;19.160;2023-04-28T04:09:59;100870.16;;;3.91;63.31
61436;BME280;47304;47.456;19.160;2023-04-28T04:12:29;100865.96;;;3.95;63.42
61436;BME280;47304;47.456;19.160;2023-04-28T04:14:56;100866.92;;;3.98;63.52
61436;BME280;47304;47.456;19.160;2023-04-28T04:17:22;100871.21;;;4.01;63.79
61436;BME280;47304;47.456;19.160;2023-04-28T04:19:49;100867.70;;;4.05;63.93
61436;BME280;47304;47.456;19.160;2023-04-28T04:22:15;100866.84;;;4.10;63.89
61436;BME280;47304;47.456;19.160;2023-04-28T04:24:42;100863.20;;;4.16;63.73
61436;BME280;47304;47.456;19.160;2023-04-28T04:27:08;100869.48;;;4.22;63.71
61436;BME280;47304;47.456;19.160;2023-04-28T04:29:35;100861.38;;;4.23;63.77
61436;BME280;47304;47.456;19.160;2023-04-28T04:32:02;100871.92;;;4.33;63.72
61436;BME280;47304;47.456;19.160;2023-04-28T04:34:28;100875.92;;;4.39;63.83
61436;BME280;47304;47.456;19.160;2023-04-28T04:36:55;100876.66;;;4.45;63.67
61436;BME280;47304;47.456;19.160;2023-04-28T04:39:21;100872.57;;;4.53;63.75
61436;BME280;47304;47.456;19.160;2023-04-28T04:41:48;100870.40;;;4.61;63.55
61436;BME280;47304;47.456;19.160;2023-04-28T04:44:14;100874.31;;;4.70;63.26
61436;BME280;47304;47.456;19.160;2023-04-28T04:46:41;100871.30;;;4.79;63.26
61436;BME280;47304;47.456;19.160;2023-04-28T04:49:08;100870.55;;;4.89;63.03
61436;BME280;47304;47.456;19.160;2023-04-28T04:51:34;100871.58;;;5.00;62.66
61436;BME280;47304;47.456;19.160;2023-04-28T04:54:01;100868.96;;;5.11;62.35
61436;BME280;47304;47.456;19.160;2023-04-28T04:56:27;100867.38;;;5.22;62.39
61436;BME280;47304;47.456;19.160;2023-04-28T04:58:54;100868.07;;;5.34;62.27
61436;BME280;47304;47.456;19.160;2023-04-28T05:01:20;100869.27;;;5.45;61.93
61436;BME280;47304;47.456;19.160;2023-04-28T05:03:47;100870.52;;;5.59;61.43
61436;BME280;47304;47.456;19.160;2023-04-28T05:06:14;100871.23;;;5.73;61.18
61436;BME280;47304;47.456;19.160;2023-04-28T05:08:45;100870.36;;;5.85;60.78
61436;BME280;47304;47.456;19.160;2023-04-28T05:11:36;100868.16;;;6.00;60.62
61436;BME280;47304;47.456;19.160;2023-04-28T05:14:02;100869.91;;;6.13;59.85
61436;BME280;47304;47.456;19.160;2023-04-28T05:16:29;100868.48;;;6.26;59.75
61436;BME280;47304;47.456;19.160;2023-04-28T05:18:55;100869.34;;;6.39;59.58
61436;BME280;47304;47.456;19.160;2023-04-28T05:21:22;100866.66;;;6.51;58.72
61436;BME280;47304;47.456;19.160;2023-04-28T05:23:49;100867.11;;;6.63;58.53
61436;BME280;47304;47.456;19.160;2023-04-28T05:26:15;100867.52;;;6.73;57.65
61436;BME280;47304;47.456;19.160;2023-04-28T05:28:42;100871.96;;;6.84;57.58
61436;BME280;47304;47.456;19.160;2023-04-28T05:31:08;100873.60;;;6.96;57.50
61436;BME280;47304;47.456;19.160;2023-04-28T05:33:35;100875.40;;;7.07;57.74
61436;BME280;47304;47.456;19.160;2023-04-28T05:36:01;100878.63;;;7.18;57.64
61436;BME280;47304;47.456;19.160;2023-04-28T05:38:28;100878.99;;;7.27;56.69
61436;BME280;47304;47.456;19.160;2023-04-28T05:40:54;100887.94;;;7.39;55.90
61436;BME280;47304;47.456;19.160;2023-04-28T05:43:21;100885.14;;;7.46;55.53
61436;BME280;47304;47.456;19.160;2023-04-28T05:45:47;100878.88;;;7.56;55.68
61436;BME280;47304;47.456;19.160;2023-04-28T05:48:14;100879.72;;;7.63;55.14
61436;BME280;47304;47.456;19.160;2023-04-28T05:50:40;100877.11;;;7.72;54.87
61436;BME280;47304;47.456;19.160;2023-04-28T05:53:07;100877.84;;;7.84;54.22
61436;BME280;47304;47.456;19.160;2023-04-28T05:55:33;100877.02;;;7.95;53.74
61436;BME280;47304;47.456;19.160;2023-04-28T05:58:01;100878.25;;;8.06;53.13
61436;BME280;47304;47.456;19.160;2023-04-28T06:00:27;100873.39;;;8.18;52.87
61436;BME280;47304;47.456;19.160;2023-04-28T06:02:54;100874.63;;;8.29;52.83
61436;BME280;47304;47.456;19.160;2023-04-28T06:05:21;100873.66;;;8.44;52.43
61436;BME280;47304;47.456;19.160;2023-04-28T06:07:48;100872.54;;;8.59;52.40
61436;BME280;47304;47.456;19.160;2023-04-28T06:10:15;100874.34;;;8.75;52.25
61436;BME280;47304;47.456;19.160;2023-04-28T06:12:42;100878.05;;;8.88;52.23
61436;BME280;47304;47.456;19.160;2023-04-28T06:15:09;100877.67;;;8.99;51.99
61436;BME280;47304;47.456;19.160;2023-04-28T06:17:37;100877.64;;;9.10;51.80
61436;BME280;47304;47.456;19.160;2023-04-28T06:20:05;100881.59;;;9.18;51.40
61436;BME280;47304;47.456;19.160;2023-04-28T06:22:31;100877.69;;;9.26;51.13
61436;BME280;47304;47.456;19.160;2023-04-28T06:24:58;100880.23;;;9.34;51.15
61436;BME280;47304;47.456;19.160;2023-04-28T06:27:24;100884.75;;;9.46;50.70
61436;BME280;47304;47.456;19.160;2023-04-28T06:29:51;100889.26;;;9.57;50.37
61436;BME280;47304;47.456;19.160;2023-04-28T06:32:17;100883.45;;;9.69;50.13
61436;BME280;47304;47.456;19.160;2023-04-28T06:34:44;100882.58;;;9.85;50.46
61436;BME280;47304;47.456;19.160;2023-04-28T06:37:10;100887.14;;;10.04;50.38
61436;BME280;47304;47.456;19.160;2023-04-28T06:39:37;100892.05;;;10.23;49.85
61436;BME280;47304;47.456;19.160;2023-04-28T06:42:03;100887.35;;;10.43;49.64
61436;BME280;47304;47.456;19.160;2023-04-28T06:44:30;100887.34;;;10.61;49.50
61436;BME280;47304;47.456;19.160;2023-04-28T06:46:56;100884.45;;;10.75;48.63
61436;BME280;47304;47.456;19.160;2023-04-28T06:49:23;100884.18;;;10.87;48.03
61436;BME280;47304;47.456;19.160;2023-04-28T06:51:50;100876.69;;;10.95;47.57
61436;BME280;47304;47.456;19.160;2023-04-28T06:54:16;100877.83;;;11.07;47.60
61436;BME280;47304;47.456;19.160;2023-04-28T06:56:43;100880.35;;;11.22;47.70
61436;BME280;47304;47.456;19.160;2023-04-28T06:59:10;100879.89;;;11.36;47.74
61436;BME280;47304;47.456;19.160;2023-04-28T07:01:36;100884.16;;;11.52;47.57
61436;BME280;47304;47.456;19.160;2023-04-28T07:04:03;100877.89;;;11.64;46.90
61436;BME280;47304;47.456;19.160;2023-04-28T07:06:30;100877.73;;;11.73;46.71
61436;BME280;47304;47.456;19.160;2023-04-28T07:08:56;100872.16;;;11.86;47.06
61436;BME280;47304;47.456;19.160;2023-04-28T07:11:23;100869.02;;;11.95;45.99
61436;BME280;47304;47.456;19.160;2023-04-28T07:13:50;100869.26;;;12.07;45.71
61436;BME280;47304;47.456;19.160;2023-04-28T07:16:17;100868.37;;;12.17;45.33
61436;BME280;47304;47.456;19.160;2023-04-28T07:18:43;100866.63;;;12.32;45.38
61436;BME280;47304;47.456;19.160;2023-04-28T07:21:10;100866.10;;;12.48;44.81
61436;BME280;47304;47.456;19.160;2023-04-28T07:23:36;100855.38;;;12.61;43.08
61436;BME280;47304;47.456;19.160;2023-04-28T07:26:03;100853.25;;;12.74;42.42
61436;BME280;47304;47.456;19.160;2023-04-28T07:28:30;100853.77;;;12.80;41.23
61436;BME280;47304;47.456;19.160;2023-04-28T07:30:56;100857.09;;;12.82;41.55
61436;BME280;47304;47.456;19.160;2023-04-28T07:33:23;100856.90;;;12.89;41.81
61436;BME280;47304;47.456;19.160;2023-04-28T07:35:50;100855.98;;;13.06;42.07
61436;BME280;47304;47.456;19.160;2023-04-28T07:38:16;100857.01;;;13.16;42.06
61436;BME280;47304;47.456;19.160;2023-04-28T07:40:43;100855.38;;;13.31;42.01
61436;BME280;47304;47.456;19.160;2023-04-28T07:43:09;100852.87;;;13.47;41.86
61436;BME280;47304;47.456;19.160;2023-04-28T07:45:39;100853.88;;;13.57;39.98
61436;BME280;47304;47.456;19.160;2023-04-28T07:48:06;100854.73;;;13.65;39.58
61436;BME280;47304;47.456;19.160;2023-04-28T07:50:33;100853.45;;;13.73;39.42
61436;BME280;47304;47.456;19.160;2023-04-28T07:52:59;100855.86;;;13.80;38.87
61436;BME280;47304;47.456;19.160;2023-04-28T07:55:26;100851.81;;;13.81;38.68
61436;BME280;47304;47.456;19.160;2023-04-28T07:57:52;100842.80;;;13.87;38.29
61436;BME280;47304;47.456;19.160;2023-04-28T08:00:19;100843.45;;;13.94;37.77
61436;BME280;47304;47.456;19.160;2023-04-28T08:02:46;100840.27;;;13.97;37.21
61436;BME280;47304;47.456;19.160;2023-04-28T08:05:12;100830.94;;;13.96;37.82
61436;BME280;47304;47.456;19.160;2023-04-28T08:07:39;100828.77;;;14.02;37.94
61436;BME280;47304;47.456;19.160;2023-04-28T08:10:07;100824.47;;;14.13;37.96
61436;BME280;47304;47.456;19.160;2023-04-28T08:12:34;100820.36;;;14.19;37.66
61436;BME280;47304;47.456;19.160;2023-04-28T08:15:00;100817.48;;;14.28;37.12
61436;BME280;47304;47.456;19.160;2023-04-28T08:17:27;100815.85;;;14.32;36.87
61436;BME280;47304;47.456;19.160;2023-04-28T08:19:53;100811.58;;;14.36;36.53
61436;BME280;47304;47.456;19.160;2023-04-28T08:22:20;100809.23;;;14.42;36.60
61436;BME280;47304;47.456;19.160;2023-04-28T08:24:46;100807.37;;;14.54;36.34
61436;BME280;47304;47.456;19.160;2023-04-28T08:27:13;100802.84;;;14.68;36.38
61436;BME280;47304;47.456;19.160;2023-04-28T08:29:39;100800.21;;;14.84;36.42
61436;BME280;47304;47.456;19.160;2023-04-28T08:32:06;100791.46;;;14.93;36.01
61436;BME280;47304;47.456;19.160;2023-04-28T08:34:33;100792.92;;;15.03;35.59
61436;BME280;47304;47.456;19.160;2023-04-28T08:36:59;100789.27;;;15.14;35.57
61436;BME280;47304;47.456;19.160;2023-04-28T08:39:26;100788.75;;;15.28;35.07
61436;BME280;47304;47.456;19.160;2023-04-28T08:41:52;100786.16;;;15.36;34.51
61436;BME280;47304;47.456;19.160;2023-04-28T08:44:19;100783.93;;;15.44;34.82
61436;BME280;47304;47.456;19.160;2023-04-28T08:46:47;100784.66;;;15.55;33.91
61436;BME280;47304;47.456;19.160;2023-04-28T08:49:17;100779.91;;;15.66;33.74
61436;BME280;47304;47.456;19.160;2023-04-28T08:51:45;100783.64;;;15.76;33.70
61436;BME280;47304;47.456;19.160;2023-04-28T08:54:15;100779.91;;;15.78;32.67
61436;BME280;47304;47.456;19.160;2023-04-28T08:56:55;100771.17;;;15.84;32.62
61436;BME280;47304;47.456;19.160;2023-04-28T08:59:22;100772.80;;;15.94;31.98
61436;BME280;47304;47.456;19.160;2023-04-28T09:01:49;100771.85;;;15.98;32.14
61436;BME280;47304;47.456;19.160;2023-04-28T09:04:16;100770.66;;;16.05;32.48
61436;BME280;47304;47.456;19.160;2023-04-28T09:06:45;100771.54;;;16.17;32.36
61436;BME280;47304;47.456;19.160;2023-04-28T09:12:02;100765.45;;;16.50;31.72
61436;BME280;47304;47.456;19.160;2023-04-28T09:14:31;100768.11;;;16.59;30.64
61436;BME280;47304;47.456;19.160;2023-04-28T09:16:58;100767.99;;;16.66;30.46
61436;BME280;47304;47.456;19.160;2023-04-28T09:19:35;100769.09;;;16.73;29.64
61436;BME280;47304;47.456;19.160;2023-04-28T09:22:02;100763.36;;;16.86;31.62
61436;BME280;47304;47.456;19.160;2023-04-28T09:24:49;100756.50;;;17.03;29.90
61436;BME280;47304;47.456;19.160;2023-04-28T09:27:25;100759.88;;;17.10;29.67
61436;BME280;47304;47.456;19.160;2023-04-28T09:29:52;100762.75;;;17.17;29.17
61436;BME280;47304;47.456;19.160;2023-04-28T09:32:20;100762.66;;;17.21;29.60
61436;BME280;47304;47.456;19.160;2023-04-28T09:34:49;100758.39;;;17.30;29.82
61436;BME280;47304;47.456;19.160;2023-04-28T09:37:18;100762.67;;;17.36;28.97
61436;BME280;47304;47.456;19.160;2023-04-28T09:39:52;100762.86;;;17.36;29.01
61436;BME280;47304;47.456;19.160;2023-04-28T09:47:32;100758.86;;;17.41;28.75
61436;BME280;47304;47.456;19.160;2023-04-28T09:50:01;100747.13;;;17.35;28.68
61436;BME280;47304;47.456;19.160;2023-04-28T09:52:28;100747.22;;;17.39;29.20
61436;BME280;47304;47.456;19.160;2023-04-28T09:54:55;100745.73;;;17.42;28.98
61436;BME280;47304;47.456;19.160;2023-04-28T09:57:22;100738.27;;;17.43;29.93
61436;BME280;47304;47.456;19.160;2023-04-28T09:59:50;100733.55;;;17.48;29.11
61436;BME280;47304;47.456;19.160;2023-04-28T10:02:19;100730.88;;;17.49;29.08
61436;BME280;47304;47.456;19.160;2023-04-28T10:04:51;100721.16;;;17.55;29.45
61436;BME280;47304;47.456;19.160;2023-04-28T10:07:19;100722.04;;;17.77;30.03
61436;BME280;47304;47.456;19.160;2023-04-28T10:09:50;100722.09;;;17.98;29.38
61436;BME280;47304;47.456;19.160;2023-04-28T10:12:22;100718.96;;;18.10;29.04
61436;BME280;47304;47.456;19.160;2023-04-28T10:14:53;100710.31;;;18.15;28.94
61436;BME280;47304;47.456;19.160;2023-04-28T10:17:20;100708.09;;;18.19;28.70
61436;BME280;47304;47.456;19.160;2023-04-28T10:19:48;100708.64;;;18.18;28.49
61436;BME280;47304;47.456;19.160;2023-04-28T10:22:51;100706.02;;;18.30;28.54
61436;BME280;47304;47.456;19.160;2023-04-28T10:25:28;100705.98;;;18.62;27.92
61436;BME280;47304;47.456;19.160;2023-04-28T10:27:58;100693.36;;;18.95;27.48
61436;BME280;47304;47.456;19.160;2023-04-28T10:30:26;100688.48;;;19.38;27.00
61436;BME280;47304;47.456;19.160;2023-04-28T10:35:43;100670.58;;;21.13;25.47
61436;BME280;47304;47.456;19.160;2023-04-28T10:38:18;100667.42;;;22.20;24.09
61436;BME280;47304;47.456;19.160;2023-04-28T10:40:48;100656.05;;;23.54;23.38
61436;BME280;47304;47.456;19.160;2023-04-28T10:56:26;100640.77;;;29.18;17.76
61436;BME280;47304;47.456;19.160;2023-04-28T10:58:54;100639.30;;;27.77;18.10
61436;BME280;47304;47.456;19.160;2023-04-28T11:03:55;100624.14;;;27.74;18.34
61436;BME280;47304;47.456;19.160;2023-04-28T11:08:48;100621.23;;;29.24;17.36
61436;BME280;47304;47.456;19.160;2023-04-28T11:11:17;100618.90;;;29.19;16.74
61436;BME280;47304;47.456;19.160;2023-04-28T11:13:44;100614.16;;;28.60;16.97
61436;BME280;47304;47.456;19.160;2023-04-28T11:16:22;100613.23;;;28.01;17.59
61436;BME280;47304;47.456;19.160;2023-04-28T11:19:00;100610.42;;;27.50;17.77
61436;BME280;47304;47.456;19.160;2023-04-28T11:21:26;100615.54;;;26.94;17.94
61436;BME280;47304;47.456;19.160;2023-04-28T11:23:53;100619.86;;;26.34;18.60
61436;BME280;47304;47.456;19.160;2023-04-28T11:26:20;100619.77;;;25.77;18.78
61436;BME280;47304;47.456;19.160;2023-04-28T11:28:51;100617.61;;;25.15;19.48
61436;BME280;47304;47.456;19.160;2023-04-28T11:31:18;100616.98;;;24.68;20.04
61436;BME280;47304;47.456;19.160;2023-04-28T11:33:49;100613.58;;;24.18;20.66
61436;BME280;47304;47.456;19.160;2023-04-28T11:36:28;100616.35;;;23.46;21.13
61436;BME280;47304;47.456;19.160;2023-04-28T11:38:55;100616.23;;;22.78;21.89
61436;BME280;47304;47.456;19.160;2023-04-28T11:41:22;100618.30;;;22.29;22.70
61436;BME280;47304;47.456;19.160;2023-04-28T11:43:49;100619.11;;;21.91;23.16
61436;BME280;47304;47.456;19.160;2023-04-28T11:46:17;100617.31;;;21.49;23.74
61436;BME280;47304;47.456;19.160;2023-04-28T11:48:45;100624.47;;;21.08;23.98
61436;BME280;47304;47.456;19.160;2023-04-28T11:51:29;100622.63;;;20.73;24.60
61436;BME280;47304;47.456;19.160;2023-04-28T11:53:56;100619.23;;;20.40;25.06
61436;BME280;47304;47.456;19.160;2023-04-28T11:56:22;100615.92;;;20.14;25.60
61436;BME280;47304;47.456;19.160;2023-04-28T11:59:02;100612.95;;;19.93;25.73
61436;BME280;47304;47.456;19.160;2023-04-28T12:01:30;100604.52;;;19.68;26.15
61436;BME280;47304;47.456;19.160;2023-04-28T12:03:57;100599.56;;;19.57;26.44
61436;BME280;47304;47.456;19.160;2023-04-28T12:06:24;100599.34;;;19.43;26.21
61436;BME280;47304;47.456;19.160;2023-04-28T12:08:50;100593.45;;;19.39;26.73
61436;BME280;47304;47.456;19.160;2023-04-28T12:11:17;100588.23;;;19.41;27.09
61436;BME280;47304;47.456;19.160;2023-04-28T12:14:05;100585.13;;;19.32;26.89
61436;BME280;47304;47.456;19.160;2023-04-28T12:16:42;100592.08;;;19.21;27.42
61436;BME280;47304;47.456;19.160;2023-04-28T12:19:10;100587.30;;;18.92;27.84
61436;BME280;47304;47.456;19.160;2023-04-28T12:21:38;100585.40;;;18.79;28.33
61436;BME280;47304;47.456;19.160;2023-04-28T12:24:14;100581.84;;;18.73;28.41
61436;BME280;47304;47.456;19.160;2023-04-28T12:26:41;100580.41;;;18.68;28.33
61436;BME280;47304;47.456;19.160;2023-04-28T12:29:08;100586.66;;;18.61;28.39
61436;BME280;47304;47.456;19.160;2023-04-28T12:31:50;100580.84;;;18.42;28.66
61436;BME280;47304;47.456;19.160;2023-04-28T12:34:17;100579.27;;;18.29;28.92
61436;BME280;47304;47.456;19.160;2023-04-28T12:36:43;100575.65;;;18.18;28.93
61436;BME280;47304;47.456;19.160;2023-04-28T12:39:14;100570.98;;;18.08;29.43
61436;BME280;47304;47.456;19.160;2023-04-28T12:41:41;100565.11;;;18.03;29.79
61436;BME280;47304;47.456;19.160;2023-04-28T12:44:07;100558.70;;;18.03;30.09
61436;BME280;47304;47.456;19.160;2023-04-28T12:46:34;100552.63;;;18.05;30.40
61436;BME280;47304;47.456;19.160;2023-04-28T12:49:01;100548.17;;;18.00;30.18
61436;BME280;47304;47.456;19.160;2023-04-28T12:51:27;100543.16;;;17.94;30.33
61436;BME280;47304;47.456;19.160;2023-04-28T12:53:54;100535.17;;;17.95;30.54
61436;BME280;47304;47.456;19.160;2023-04-28T12:56:21;100524.02;;;18.08;30.93
61436;BME280;47304;47.456;19.160;2023-04-28T12:58:47;100514.77;;;18.26;30.70
61436;BME280;47304;47.456;19.160;2023-04-28T13:01:14;100505.38;;;18.38;30.40
61436;BME280;47304;47.456;19.160;2023-04-28T13:03:40;100506.21;;;18.52;30.61
61436;BME280;47304;47.456;19.160;2023-04-28T13:06:07;100492.40;;;18.73;30.05
61436;BME280;47304;47.456;19.160;2023-04-28T13:08:33;100485.92;;;18.99;29.95
61436;BME280;47304;47.456;19.160;2023-04-28T13:11:00;100486.10;;;19.20;29.42
61436;BME280;47304;47.456;19.160;2023-04-28T13:13:30;100474.69;;;19.22;29.35
61436;BME280;47304;47.456;19.160;2023-04-28T13:15:56;100466.63;;;19.28;29.80